Time;durP1;ratioP1;P1;durP2;ratioP2;P2;SDS_P1;SDS_P2;PMS_P1;PMS_P2;Temp;Humidity;BMP_temperature;BMP_pressure;BME280_temperature;BME280_humidity;BME280_pressure;Samples;Min_cycle;Max_cycle;Signal;HPM_P1;HPM_P2
2022/11/04 00:01:27;;;;;;;19.23;10.90;;;13.10;77.70;;;13.33;55.59;95091.53;5018994;28;20446;-54
2022/11/04 00:03:54;;;;;;;18.93;10.90;;;13.10;77.90;;;13.30;55.72;95090.97;5018294;28;21029;-55
2022/11/04 00:06:23;;;;;;;20.63;10.20;;;13.10;78.10;;;13.27;55.38;95092.09;5014595;28;20450;-54
2022/11/04 00:08:50;;;;;;;24.20;10.90;;;13.00;78.50;;;13.26;56.19;95090.44;5017266;28;20473;-54
2022/11/04 00:13:59;;;;;;;21.77;11.27;;;13.00;78.80;;;13.20;56.15;95088.38;4983622;28;20449;-56
2022/11/04 00:19:10;;;;;;;32.27;11.37;;;13.00;78.80;;;13.15;55.70;95093.31;5015068;28;20511;-56
2022/11/04 00:29:57;;;;;;;32.20;10.53;;;12.80;80.20;;;13.03;56.63;95080.31;5011414;28;20457;-54
2022/11/04 00:35:09;;;;;;;28.00;10.87;;;12.80;80.70;;;13.01;56.25;95076.16;5014714;28;20576;-54
2022/11/04 00:37:38;;;;;;;17.80;10.63;;;12.80;80.90;;;12.96;56.29;95070.50;5016594;28;21051;-53
2022/11/04 00:40:07;;;;;;;28.47;11.00;;;12.80;81.00;;;12.96;56.21;95079.25;5016029;28;20497;-54
2022/11/04 00:42:34;;;;;;;26.27;9.97;;;12.70;80.60;;;12.95;56.31;95068.84;5015949;28;20472;-53
2022/11/04 00:45:02;;;;;;;19.97;10.43;;;12.70;81.10;;;12.91;56.39;95065.69;5017289;28;20500;-56
2022/11/04 00:47:29;;;;;;;29.50;11.17;;;12.70;81.10;;;12.89;56.24;95063.19;5013605;28;20472;-55
2022/11/04 00:49:56;;;;;;;31.97;10.07;;;12.70;81.40;;;12.88;56.54;95058.06;5013672;28;20913;-55
2022/11/04 00:52:24;;;;;;;27.87;12.00;;;12.70;81.60;;;12.86;56.53;95058.22;5016193;28;20655;-55
2022/11/04 00:54:52;;;;;;;27.50;11.80;;;12.70;81.80;;;12.85;56.55;95055.72;5016522;28;20460;-53
2022/11/04 00:57:35;;;;;;;30.00;11.13;;;12.60;81.50;;;12.81;56.63;95049.91;5016817;28;20454;-55
2022/11/04 01:00:02;;;;;;;21.40;10.80;;;12.60;82.20;;;12.80;57.01;95053.53;5013705;28;21064;-57
2022/11/04 01:02:29;;;;;;;21.97;9.87;;;12.60;82.50;;;12.79;56.64;95048.41;5014553;28;20464;-55
2022/11/04 01:04:56;;;;;;;21.97;10.60;;;12.60;82.30;;;12.76;56.89;95054.78;5016356;28;20449;-54
2022/11/04 01:07:24;;;;;;;34.83;12.30;;;12.60;82.90;;;12.73;56.77;95047.16;5016019;28;20902;-54
2022/11/04 01:09:52;;;;;;;29.87;10.43;;;12.50;82.70;;;12.70;56.76;95047.47;5014394;28;20507;-55
2022/11/04 01:12:19;;;;;;;23.03;10.80;;;12.50;82.40;;;12.67;57.18;95042.47;5016727;28;20958;-55
2022/11/04 01:14:48;;;;;;;38.77;13.07;;;12.50;83.60;;;12.65;56.97;95033.91;5016651;28;20449;-54
2022/11/04 01:17:16;;;;;;;37.37;13.53;;;12.50;83.10;;;12.64;56.97;95040.13;5015876;28;20815;-54
2022/11/04 01:19:43;;;;;;;28.13;11.60;;;12.40;83.20;;;12.63;57.13;95031.41;5014704;28;20513;-56
2022/11/04 01:22:10;;;;;;;35.40;11.87;;;12.40;83.60;;;12.60;57.25;95030.88;5016641;28;20825;-54
2022/11/04 01:24:37;;;;;;;27.53;11.80;;;12.40;83.70;;;12.58;57.69;95027.53;5016832;28;20469;-55
2022/11/04 01:27:06;;;;;;;21.53;11.30;;;12.40;84.30;;;12.55;57.07;95024.22;5016621;28;20706;-55
2022/11/04 01:29:33;;;;;;;25.17;11.90;;;12.40;84.00;;;12.53;57.38;95031.47;5016187;28;20522;-55
2022/11/04 01:32:00;;;;;;;21.20;11.20;;;12.30;84.30;;;12.50;57.69;95029.13;5016972;28;20449;-56
2022/11/04 01:34:28;;;;;;;23.77;12.97;;;12.30;84.90;;;12.48;57.96;95033.69;5015142;28;20564;-55
2022/11/04 01:36:55;;;;;;;21.40;12.47;;;12.30;85.10;;;12.46;57.77;95034.84;5011159;28;20457;-55
2022/11/04 01:39:22;;;;;;;24.70;12.07;;;12.30;85.40;;;12.45;57.69;95030.53;5015572;28;20481;-54
2022/11/04 01:41:49;;;;;;;39.23;17.20;;;12.20;85.10;;;12.42;57.50;95034.28;5015319;28;21044;-55
2022/11/04 01:44:53;;;;;;;38.23;15.20;;;12.20;85.00;;;12.38;57.82;95031.13;5015456;28;20481;-53
2022/11/04 01:47:23;;;;;;;24.17;13.30;;;12.20;85.30;;;12.34;57.45;95026.28;5012068;28;20448;-56
2022/11/04 01:49:53;;;;;;;28.83;12.80;;;12.10;85.10;;;12.28;57.96;95022.41;5015701;28;20885;-55
2022/11/04 01:52:24;;;;;;;26.13;11.50;;;12.10;85.60;;;12.26;57.84;95026.19;5012506;28;20520;-55
2022/11/04 01:54:51;;;;;;;30.03;11.30;;;12.10;85.60;;;12.23;57.42;95024.69;5015990;28;20449;-53
2022/11/04 01:57:22;;;;;;;22.10;12.10;;;12.10;85.00;;;12.18;57.49;95024.28;5016660;28;21023;-54
2022/11/04 01:59:51;;;;;;;28.53;11.50;;;12.00;85.20;;;12.15;57.74;95019.31;5014847;28;20449;-56
2022/11/04 02:02:18;;;;;;;18.70;10.70;;;12.00;86.30;;;12.08;57.95;95011.13;5015361;28;20507;-55
2022/11/04 02:04:45;;;;;;;24.53;12.43;;;12.00;85.90;;;12.07;57.52;95017.41;5020192;28;20600;-55
2022/11/04 02:07:13;;;;;;;20.47;11.40;;;11.90;85.40;;;12.04;57.68;95009.78;5014824;28;20885;-55
2022/11/04 02:09:40;;;;;;;25.13;11.20;;;11.90;85.70;;;12.01;57.75;95010.91;5018300;28;20484;-54
2022/11/04 02:14:53;;;;;;;20.83;11.33;;;11.80;85.80;;;11.97;57.70;95011.31;5011941;28;20436;-54
2022/11/04 02:17:33;;;;;;;21.83;11.97;;;11.80;85.90;;;11.94;57.76;95003.72;5016073;28;20457;-54
2022/11/04 02:20:29;;;;;;;21.27;11.73;;;11.80;86.10;;;11.92;58.29;95005.63;5015391;28;20869;-54
2022/11/04 02:23:30;;;;;;;40.40;12.23;;;11.80;86.60;;;11.90;58.23;95000.50;5017900;28;20476;-54
2022/11/04 02:26:51;;;;;;;24.83;10.97;;;11.70;86.80;;;11.89;58.56;94998.03;5014331;28;20565;-56
2022/11/04 02:29:39;;;;;;;22.10;12.53;;;11.70;87.10;;;11.86;58.44;94996.50;5016107;28;20473;-55
2022/11/04 02:32:12;;;;;;;32.57;12.30;;;11.70;87.20;;;11.83;58.42;94997.63;5014973;28;20453;-54
2022/11/04 02:34:44;;;;;;;27.30;12.63;;;11.70;87.80;;;11.81;57.88;94999.56;5014647;28;20541;-55
2022/11/04 02:37:16;;;;;;;29.20;12.80;;;11.70;87.20;;;11.78;58.21;94996.41;5017393;28;20437;-54
2022/11/04 02:39:51;;;;;;;21.53;12.50;;;11.60;87.50;;;11.75;58.15;94997.50;5013879;28;20803;-55
2022/11/04 02:42:25;;;;;;;30.80;13.53;;;11.60;87.60;;;11.71;58.52;94992.66;5016505;28;20749;-54
2022/11/04 02:45:00;;;;;;;26.00;12.67;;;11.50;88.00;;;11.69;58.48;94998.06;5016527;28;20455;-54
2022/11/04 02:47:29;;;;;;;27.30;13.23;;;11.50;88.20;;;11.68;58.55;95001.72;5018002;28;20974;-55
2022/11/04 02:50:00;;;;;;;38.33;14.20;;;11.50;88.20;;;11.68;58.70;94996.44;5015702;28;20527;-54
2022/11/04 02:52:31;;;;;;;24.23;13.57;;;11.50;89.60;;;11.65;59.24;94994.91;5018175;28;20449;-54
2022/11/04 02:55:01;;;;;;;34.23;15.60;;;11.50;89.30;;;11.64;58.98;94995.06;5018515;28;20452;-55
2022/11/04 02:57:30;;;;;;;35.57;14.60;;;11.50;89.30;;;11.64;58.80;94995.06;5018607;28;20458;-55
2022/11/04 03:00:02;;;;;;;34.60;14.93;;;11.40;88.90;;;11.63;58.91;94990.75;5013030;28;20454;-56
2022/11/04 03:02:33;;;;;;;27.13;13.20;;;11.40;89.50;;;11.63;58.77;94993.38;5019293;28;20463;-55
2022/11/04 03:05:00;;;;;;;23.70;13.63;;;11.40;89.50;;;11.63;59.01;94998.66;5008912;28;20520;-57
2022/11/04 03:07:29;;;;;;;27.33;13.90;;;11.40;89.50;;;11.58;58.96;94985.91;5009878;28;20461;-54
2022/11/04 03:10:00;;;;;;;27.80;13.83;;;11.40;89.50;;;11.59;59.06;94992.84;5013689;28;20936;-54
2022/11/04 03:12:30;;;;;;;23.40;12.00;;;11.40;89.50;;;11.58;59.13;94983.28;5016530;28;20455;-56
2022/11/04 03:15:03;;;;;;;23.43;12.73;;;11.40;89.50;;;11.58;58.74;94985.91;5016991;28;20531;-55
2022/11/04 03:17:33;;;;;;;26.60;13.40;;;11.40;89.50;;;11.56;59.06;94989.69;5009198;28;20473;-56
2022/11/04 03:20:01;;;;;;;24.33;11.70;;;11.40;89.50;;;11.55;58.98;94993.28;5000330;28;20504;-56
2022/11/04 03:22:29;;;;;;;25.77;13.10;;;11.40;89.50;;;11.53;59.16;94985.50;4999288;28;20982;-55
2022/11/04 03:24:56;;;;;;;19.00;11.57;;;11.40;90.00;;;11.51;59.33;94991.88;5005429;28;20513;-55
2022/11/04 03:27:27;;;;;;;18.83;11.50;;;11.30;90.10;;;11.47;59.18;94992.16;5007756;28;20469;-55
2022/11/04 03:29:59;;;;;;;33.53;13.20;;;11.30;90.10;;;11.47;59.26;94986.91;5013188;28;20532;-55
2022/11/04 03:32:32;;;;;;;24.43;11.80;;;11.30;90.20;;;11.46;59.39;94994.94;5014888;28;20456;-60
2022/11/04 03:35:00;;;;;;;19.20;10.97;;;11.30;90.30;;;11.43;59.36;94990.81;5012853;28;20453;-54
2022/11/04 03:37:27;;;;;;;22.20;11.47;;;11.30;90.40;;;11.42;59.08;94998.84;5013295;28;20464;-54
2022/11/04 03:39:54;;;;;;;24.30;12.17;;;11.30;90.20;;;11.38;59.61;94993.03;5014507;28;20469;-55
2022/11/04 03:42:22;;;;;;;22.00;11.43;;;11.20;90.30;;;11.37;59.44;94995.78;5013082;28;20547;-54
2022/11/04 03:44:50;;;;;;;37.90;12.07;;;11.20;90.50;;;11.35;59.54;94993.31;5012946;28;20678;-54
2022/11/04 03:47:20;;;;;;;24.67;10.77;;;11.20;90.50;;;11.35;59.44;94988.03;5009004;28;20561;-56
2022/11/04 03:49:47;;;;;;;25.77;12.10;;;11.20;90.40;;;11.35;59.60;94987.22;5014305;28;20482;-56
2022/11/04 03:52:15;;;;;;;30.57;12.07;;;11.20;90.60;;;11.34;59.58;94990.81;5012732;28;20458;-54
2022/11/04 03:54:42;;;;;;;25.83;12.03;;;11.20;90.70;;;11.34;60.00;94991.66;5013051;28;20876;-54
2022/11/04 03:57:36;;;;;;;19.27;12.63;;;11.20;90.70;;;11.31;59.84;94981.41;5009293;28;20985;-55
2022/11/04 04:00:10;;;;;;;28.77;12.10;;;11.10;90.70;;;11.29;59.69;94983.34;5011934;28;20779;-55
2022/11/04 04:02:59;;;;;;;22.93;11.80;;;11.10;90.70;;;11.27;59.76;94980.84;5003845;28;20532;-53
2022/11/04 04:05:29;;;;;;;22.07;11.70;;;11.10;90.70;;;11.25;59.69;94982.78;5007306;28;20462;-55
2022/11/04 04:29:44;;;;;;;25.43;12.70;;;11.00;92.40;;;11.05;61.59;94971.47;5039161;28;20483;-55
2022/11/04 04:32:11;;;;;;;24.00;14.03;;;10.90;92.30;;;11.05;61.50;94975.91;5033121;28;20503;-57
2022/11/04 04:34:39;;;;;;;22.13;13.20;;;10.90;92.50;;;11.03;61.66;94972.56;5028482;28;20480;-55
2022/11/04 04:37:08;;;;;;;26.73;16.73;;;10.90;92.60;;;11.03;62.42;94976.03;5026766;28;20795;-56
2022/11/04 04:45:21;;;;;;;41.53;17.97;;;10.90;93.20;;;11.08;62.29;94980.88;5029591;28;20461;-54
2022/11/04 04:47:48;;;;;;;28.33;14.57;;;10.90;93.30;;;11.09;62.48;94980.75;5025102;28;20452;-55
2022/11/04 04:50:17;;;;;;;26.87;14.63;;;10.90;93.60;;;11.12;62.17;94988.38;5027765;28;20484;-54
2022/11/04 04:52:46;;;;;;;20.77;13.83;;;10.90;93.30;;;11.14;62.16;94982.97;5025651;28;20460;-57
2022/11/04 04:55:14;;;;;;;22.13;14.33;;;11.00;93.20;;;11.16;62.47;94977.56;5028770;28;20618;-53
2022/11/04 04:57:43;;;;;;;31.27;15.90;;;11.00;93.70;;;11.16;63.14;94982.81;5021567;28;20465;-55
2022/11/04 05:00:14;;;;;;;23.80;13.53;;;11.00;94.30;;;11.18;62.61;94986.13;5028886;28;20468;-55
2022/11/04 05:02:41;;;;;;;29.53;14.83;;;11.00;94.00;;;11.19;62.45;94993.06;5020310;28;20471;-55
2022/11/04 05:05:09;;;;;;;32.23;15.00;;;11.00;93.60;;;11.21;62.10;94988.47;5024672;28;20479;-54
2022/11/04 05:07:36;;;;;;;30.80;14.33;;;11.10;93.50;;;11.21;61.80;94981.41;5019289;28;20576;-55
2022/11/04 05:10:04;;;;;;;36.30;15.60;;;11.10;93.20;;;11.20;61.84;94982.41;5018839;28;21038;-54
2022/11/04 05:15:14;;;;;;;28.40;13.83;;;11.10;93.50;;;11.19;61.56;94978.09;5028697;28;20500;-55
2022/11/04 05:17:41;;;;;;;33.33;15.10;;;11.00;93.10;;;11.20;61.77;94989.44;5027721;28;20850;-58
2022/11/04 05:20:10;;;;;;;28.00;15.67;;;11.00;93.20;;;11.21;61.74;94985.84;5026598;28;20469;-56
2022/11/04 05:22:38;;;;;;;37.07;14.90;;;11.10;93.10;;;11.22;61.49;94985.72;5031029;28;20509;-57
2022/11/04 05:25:06;;;;;;;30.07;14.67;;;11.10;93.00;;;11.24;61.70;94993.47;5025222;28;20484;-55
2022/11/04 05:27:33;;;;;;;87.97;16.43;;;11.10;93.10;;;11.27;61.64;94993.19;5016949;28;20471;-53
2022/11/04 05:30:01;;;;;;;62.20;17.00;;;11.10;93.20;;;11.28;61.64;94993.03;5007789;28;20869;-56
2022/11/04 05:32:31;;;;;;;37.90;16.00;;;11.10;93.20;;;11.32;61.42;94998.03;5005889;28;21007;-59
2022/11/04 05:34:58;;;;;;;44.27;17.50;;;11.20;93.10;;;11.39;61.39;95004.41;5017843;28;20484;-56
2022/11/04 05:37:25;;;;;;;30.40;17.80;;;11.20;93.00;;;11.45;61.29;95006.47;5005737;28;20457;-55
2022/11/04 05:39:53;;;;;;;62.83;15.83;;;11.30;93.10;;;11.53;61.09;95011.84;5010844;28;20476;-55
2022/11/04 05:42:20;;;;;;;45.37;16.83;;;11.30;93.00;;;11.65;61.60;95008.09;5008974;28;20521;-55
2022/11/04 05:44:47;;;;;;;38.13;16.80;;;11.40;93.20;;;11.83;61.55;95018.72;5003100;28;20465;-55
2022/11/04 05:47:14;;;;;;;45.53;16.80;;;11.60;93.20;;;12.04;60.58;95015.06;5017655;28;20469;-56
2022/11/04 05:49:43;;;;;;;35.13;18.03;;;11.80;92.90;;;12.26;60.41;95021.75;5011950;28;20978;-57
2022/11/04 05:52:10;;;;;;;42.30;17.13;;;12.00;92.80;;;12.49;59.82;95016.91;5011784;28;20453;-55
2022/11/04 05:54:38;;;;;;;37.90;17.30;;;12.20;92.50;;;12.73;59.25;95026.06;5007205;28;20803;-55
2022/11/04 05:57:05;;;;;;;53.50;17.03;;;12.40;92.10;;;12.96;58.81;95020.34;5015951;28;20535;-55
2022/11/04 05:59:33;;;;;;;55.10;17.70;;;12.60;91.90;;;13.21;58.57;95019.56;5014641;28;20825;-57
2022/11/04 06:02:00;;;;;;;38.73;16.93;;;12.90;91.60;;;13.46;58.17;95022.44;5016199;28;20461;-57
2022/11/04 06:04:27;;;;;;;34.30;17.53;;;13.10;91.20;;;13.70;57.84;95020.97;5015567;28;20958;-57
2022/11/04 06:06:56;;;;;;;40.90;16.40;;;13.30;90.80;;;13.86;57.23;95014.94;5015529;28;20504;-55
2022/11/04 06:09:37;;;;;;;37.70;15.90;;;13.50;90.70;;;14.05;57.15;95021.81;5007774;28;20515;-56
2022/11/04 06:12:07;;;;;;;42.87;16.90;;;13.70;90.30;;;14.22;57.06;95020.94;5014780;28;20840;-55
2022/11/04 06:14:35;;;;;;;39.33;17.43;;;13.90;90.10;;;14.51;56.46;95014.41;5013691;28;20457;-56
2022/11/04 06:17:02;;;;;;;43.43;18.37;;;14.10;89.50;;;14.81;56.12;95025.44;5006279;28;20508;-56
2022/11/04 06:19:29;;;;;;;37.27;18.17;;;14.40;88.60;;;15.10;55.69;95029.47;5008830;28;20453;-56
2022/11/04 06:21:59;;;;;;;36.80;17.60;;;14.70;88.10;;;15.39;54.94;95021.06;5003088;28;20700;-55
2022/11/04 06:24:26;;;;;;;29.93;18.63;;;14.90;87.10;;;15.71;54.73;95022.03;5014951;28;20825;-56
2022/11/04 06:26:53;;;;;;;38.77;20.83;;;15.20;86.50;;;16.11;54.12;95020.31;5012712;28;20477;-56
2022/11/04 06:29:20;;;;;;;32.20;18.07;;;15.60;85.60;;;16.50;53.39;95024.84;5021006;28;20512;-55
2022/11/04 06:31:48;;;;;;;38.87;19.80;;;16.00;84.20;;;16.85;52.57;95023.50;5010145;28;21013;-56
2022/11/04 06:34:15;;;;;;;37.63;19.67;;;16.30;82.30;;;17.19;52.54;95034.75;5010256;28;20499;-56
2022/11/04 06:36:43;;;;;;;45.57;21.17;;;16.60;81.90;;;17.52;52.10;95030.03;5009475;28;20506;-54
2022/11/04 06:39:12;;;;;;;37.70;21.33;;;17.00;80.80;;;17.90;51.34;95032.72;5005368;28;20471;-55
2022/11/04 06:41:39;;;;;;;39.63;22.53;;;17.40;79.20;;;18.27;51.23;95027.53;5013203;28;20830;-55
2022/11/04 06:44:06;;;;;;;46.60;21.53;;;17.80;78.40;;;18.70;50.24;95032.16;5015480;28;20942;-56
2022/11/04 06:46:36;;;;;;;40.03;20.57;;;18.20;77.30;;;19.15;49.58;95027.59;5015591;28;20484;-56
2022/11/04 06:49:04;;;;;;;48.10;22.43;;;18.70;75.60;;;19.54;49.37;95023.66;5013701;28;20448;-54
2022/11/04 06:51:31;;;;;;;41.83;20.27;;;19.10;74.20;;;19.90;48.80;95027.28;5015900;28;20527;-56
2022/11/04 06:53:58;;;;;;;45.17;20.50;;;19.40;73.20;;;20.23;48.16;95031.00;5014892;28;20461;-55
2022/11/04 06:56:27;;;;;;;36.83;19.43;;;19.70;71.40;;;20.49;47.00;95026.00;5012766;28;20507;-55
2022/11/04 06:58:54;;;;;;;37.83;20.13;;;20.00;69.90;;;20.78;46.68;95023.06;5015140;28;20454;-57
2022/11/04 07:01:23;;;;;;;34.27;20.23;;;20.20;69.10;;;21.09;45.87;95027.09;5013486;28;20543;-56
2022/11/04 07:03:51;;;;;;;37.80;21.43;;;20.50;67.20;;;21.26;45.27;95022.19;5015144;28;20460;-57
2022/11/04 07:06:18;;;;;;;30.50;18.43;;;20.80;65.80;;;21.52;44.90;95027.81;5017939;28;20477;-55
2022/11/04 07:08:45;;;;;;;38.47;20.30;;;21.00;65.10;;;21.82;44.63;95010.34;5013944;28;20453;-56
2022/11/04 07:11:13;;;;;;;33.53;18.83;;;21.30;64.10;;;22.18;43.87;95009.09;5012185;28;20522;-55
2022/11/04 07:13:41;;;;;;;44.77;18.70;;;21.70;63.10;;;22.52;43.05;94999.13;5011416;28;20885;-57
2022/11/04 07:16:09;;;;;;;40.43;17.07;;;22.20;62.10;;;22.87;42.96;95006.03;5014666;28;20558;-56
2022/11/04 07:18:37;;;;;;;35.60;17.97;;;22.60;60.70;;;23.17;42.30;95000.94;5018584;28;20464;-57
2022/11/04 07:21:05;;;;;;;44.40;21.20;;;23.00;59.50;;;23.46;41.48;95001.38;5008059;28;20556;-57
2022/11/04 07:23:33;;;;;;;52.30;20.40;;;23.30;58.70;;;23.74;41.44;94998.28;5015072;28;20466;-55
2022/11/04 07:26:01;;;;;;;51.03;19.40;;;23.70;57.60;;;23.99;40.28;94998.31;5019583;28;20480;-55
2022/11/04 07:28:28;;;;;;;40.13;19.60;;;24.00;57.00;;;24.23;40.18;94997.66;5016314;28;20456;-54
2022/11/04 07:30:57;;;;;;;32.63;19.97;;;24.20;56.20;;;24.42;39.20;94982.41;5016162;28;20562;-57
2022/11/04 07:33:25;;;;;;;30.37;19.10;;;24.40;55.50;;;24.59;39.05;94983.47;5013239;28;20457;-56
2022/11/04 07:35:53;;;;;;;40.70;20.00;;;24.50;55.00;;;24.80;38.75;94989.41;5013565;28;20555;-56
2022/11/04 07:38:20;;;;;;;46.70;21.00;;;24.60;54.70;;;25.02;38.55;94985.22;5017149;28;20499;-54
2022/11/04 07:40:47;;;;;;;44.47;20.27;;;24.70;54.20;;;25.20;38.54;94986.22;5011226;28;20477;-55
2022/11/04 07:43:15;;;;;;;60.23;22.40;;;24.90;53.90;;;25.38;38.17;94983.50;5013663;28;20458;-55
2022/11/04 07:45:42;;;;;;;40.47;21.07;;;25.00;53.30;;;25.54;37.99;94982.00;5013271;28;20512;-55
2022/11/04 07:48:11;;;;;;;32.43;20.57;;;25.10;53.30;;;25.70;37.35;94979.69;5013742;28;20928;-56
2022/11/04 07:50:40;;;;;;;40.17;22.10;;;25.20;52.90;;;25.84;37.11;94978.44;5013386;28;20504;-55
2022/11/04 07:53:07;;;;;;;37.60;21.63;;;25.40;52.40;;;25.98;37.12;94980.94;5013618;28;20539;-55
2022/11/04 07:55:36;;;;;;;42.87;24.07;;;25.50;52.00;;;26.10;36.62;94976.38;5012868;28;20508;-55
2022/11/04 07:58:04;;;;;;;37.93;22.33;;;25.60;51.80;;;26.29;36.39;94971.69;5014038;28;20964;-54
2022/11/04 08:00:31;;;;;;;37.67;20.47;;;25.70;51.40;;;26.44;36.02;94971.19;5017997;28;20481;-56
2022/11/04 08:02:58;;;;;;;43.47;21.37;;;25.90;50.60;;;26.47;35.46;94973.41;5010800;28;20445;-55
2022/11/04 08:05:27;;;;;;;52.87;20.80;;;25.90;49.90;;;26.38;35.71;94964.03;5013535;28;20485;-57
2022/11/04 08:07:56;;;;;;;36.80;20.17;;;25.90;50.10;;;26.33;35.38;94956.66;5011790;28;20461;-57
2022/11/04 08:10:23;;;;;;;33.10;20.67;;;25.90;49.80;;;26.36;35.46;94956.19;5014598;28;20475;-55
2022/11/04 08:12:52;;;;;;;34.33;21.20;;;25.80;49.90;;;26.51;35.27;94961.09;5017034;28;20958;-56
2022/11/04 08:15:19;;;;;;;36.93;21.23;;;25.90;49.70;;;26.49;34.95;94955.09;5012559;28;20571;-56
2022/11/04 08:17:46;;;;;;;42.07;22.60;;;25.90;49.30;;;26.23;35.00;94957.25;5011059;28;20469;-54
2022/11/04 08:20:14;;;;;;;47.40;21.27;;;25.80;49.00;;;26.01;35.57;94946.25;5010030;28;21018;-56
2022/11/04 08:22:42;;;;;;;46.30;22.10;;;25.60;49.50;;;26.00;35.98;94941.09;5009849;28;20528;-54
2022/11/04 08:25:12;;;;;;;41.70;23.03;;;25.60;49.90;;;25.96;35.70;94940.72;5013372;28;20542;-55
2022/11/04 08:27:39;;;;;;;41.87;22.73;;;25.40;49.80;;;25.94;35.87;94940.94;5016430;28;20520;-55
2022/11/04 08:30:09;;;;;;;42.20;22.57;;;25.40;49.90;;;25.97;35.67;94936.97;5013685;28;20560;-56
2022/11/04 08:32:36;;;;;;;38.90;21.00;;;25.40;49.80;;;26.02;35.83;94923.63;5009224;28;20461;-57
2022/11/04 08:35:04;;;;;;;39.60;21.00;;;25.40;50.40;;;26.25;35.45;94925.47;5009322;28;20473;-56
2022/11/04 08:37:31;;;;;;;36.63;21.93;;;25.50;49.90;;;26.33;35.61;94918.09;5005435;28;20539;-54
2022/11/04 08:40:00;;;;;;;35.80;21.03;;;25.70;49.80;;;26.33;35.64;94913.50;5012735;28;20469;-55
2022/11/04 08:42:27;;;;;;;36.43;22.07;;;25.70;49.60;;;26.35;35.38;94918.66;5009542;28;20977;-56
2022/11/04 08:44:54;;;;;;;27.17;20.03;;;25.80;49.50;;;26.28;35.33;94916.09;5013805;28;20473;-56
2022/11/04 08:47:22;;;;;;;32.83;19.77;;;25.70;48.80;;;26.30;35.03;94919.38;5013501;28;20448;-54
2022/11/04 08:49:49;;;;;;;31.87;20.97;;;25.70;49.40;;;26.46;35.32;94917.81;5015755;28;20567;-57
2022/11/04 08:52:16;;;;;;;36.17;20.90;;;25.80;49.30;;;26.58;34.92;94915.91;5011742;28;20975;-55
2022/11/04 08:54:44;;;;;;;50.80;22.00;;;25.90;48.80;;;26.67;34.87;94913.69;5013855;28;20991;-56
2022/11/04 08:57:12;;;;;;;36.40;22.27;;;26.00;48.90;;;26.86;34.67;94917.00;5013267;28;20547;-54
2022/11/04 08:59:40;;;;;;;40.40;21.80;;;26.20;48.60;;;26.92;34.48;94905.25;5014139;28;20453;-55
2022/11/04 09:02:07;;;;;;;40.67;22.00;;;26.30;48.40;;;26.90;34.33;94907.38;5012003;28;20468;-55
2022/11/04 09:04:35;;;;;;;49.07;23.10;;;26.30;48.10;;;26.87;34.23;94901.66;5018453;28;20448;-55
2022/11/04 09:07:04;;;;;;;37.97;21.97;;;26.30;48.00;;;27.02;34.16;94896.53;5017188;28;20980;-56
2022/11/04 09:09:31;;;;;;;40.60;22.60;;;26.40;48.10;;;27.26;34.15;94899.09;5013340;28;21028;-58
2022/11/04 09:11:58;;;;;;;34.43;21.70;;;26.50;48.10;;;27.43;33.71;94881.06;5017086;28;20966;-55
2022/11/04 09:14:27;;;;;;;37.27;19.87;;;26.70;47.70;;;27.66;33.86;94887.38;5016116;28;20460;-54
2022/11/04 09:16:56;;;;;;;39.17;21.20;;;26.90;47.40;;;27.85;33.54;94886.03;5018363;28;20550;-54
2022/11/04 09:19:23;;;;;;;33.67;23.03;;;27.10;47.10;;;27.94;33.29;94877.50;5013518;28;20476;-55
2022/11/04 09:21:50;;;;;;;33.93;21.63;;;27.30;46.70;;;27.95;32.87;94881.81;5015598;28;20463;-54
2022/11/04 09:24:18;;;;;;;39.90;21.80;;;27.30;46.00;;;27.81;32.68;94874.09;5020121;28;20464;-55
2022/11/04 09:26:45;;;;;;;36.27;21.33;;;27.20;46.00;;;27.63;33.48;94877.06;5012455;28;20480;-56
2022/11/04 09:29:12;;;;;;;35.30;22.13;;;27.10;46.20;;;27.59;33.09;94871.34;5012988;28;20453;-56
2022/11/04 09:31:42;;;;;;;43.40;22.00;;;27.00;46.50;;;27.63;33.34;94861.66;5016300;28;20468;-56
2022/11/04 09:34:09;;;;;;;46.27;23.10;;;27.00;46.50;;;27.61;32.63;94857.56;5017588;28;20484;-55
2022/11/04 09:36:36;;;;;;;41.97;24.20;;;27.00;46.10;;;27.31;33.51;94855.97;5020604;28;20497;-57
2022/11/04 09:39:04;;;;;;;34.57;22.57;;;26.70;46.20;;;26.94;33.49;94848.31;5013051;28;20457;-55
2022/11/04 09:41:58;;;;;;;46.47;21.83;;;26.50;46.40;;;26.93;33.75;94841.31;5017225;28;20511;-55
2022/11/04 09:44:27;;;;;;;31.93;21.60;;;26.40;47.10;;;27.13;33.72;94841.66;5019661;28;20984;-55
2022/11/04 09:46:58;;;;;;;30.80;21.90;;;26.50;47.10;;;27.39;33.57;94839.41;5009576;28;20540;-55
2022/11/04 09:49:27;;;;;;;36.00;21.30;;;26.70;46.90;;;27.53;32.93;94837.19;5016376;28;20480;-55
2022/11/04 09:51:54;;;;;;;41.30;22.30;;;26.90;46.50;;;27.63;33.03;94823.00;5013410;28;20477;-55
2022/11/04 09:54:23;;;;;;;39.60;20.23;;;27.00;46.30;;;27.74;32.96;94811.28;5014054;28;20465;-54
2022/11/04 09:56:51;;;;;;;42.63;20.67;;;27.10;46.20;;;27.97;33.19;94814.84;5021309;28;20507;-56
2022/11/04 09:59:25;;;;;;;38.23;20.90;;;27.30;46.30;;;28.12;32.72;94809.66;5012281;28;20510;-56
2022/11/04 10:02:05;;;;;;;34.23;20.87;;;27.40;45.60;;;28.08;32.30;94805.78;5014180;28;20473;-56
2022/11/04 10:04:44;;;;;;;31.33;20.60;;;27.40;45.30;;;27.80;32.44;94804.06;5017889;28;20448;-55
2022/11/04 10:07:22;;;;;;;33.17;19.87;;;27.30;45.30;;;27.61;32.94;94800.81;5013805;28;20625;-56
2022/11/04 10:09:58;;;;;;;36.90;19.40;;;27.10;45.50;;;27.40;32.81;94786.19;5010247;28;20445;-56
2022/11/04 10:12:46;;;;;;;36.07;18.93;;;26.90;45.60;;;27.45;33.00;94800.59;5016902;28;20464;-55
2022/11/04 10:15:28;;;;;;;28.60;18.93;;;26.90;45.90;;;27.46;32.89;94787.91;5013500;28;20491;-55
2022/11/04 10:18:07;;;;;;;36.07;17.03;;;26.90;45.70;;;27.43;32.88;94780.28;5021220;28;20480;-54
2022/11/04 10:20:50;;;;;;;37.63;18.37;;;26.90;45.60;;;27.63;32.99;94782.47;5008568;28;20496;-56
2022/11/04 10:23:22;;;;;;;33.13;20.10;;;27.00;45.90;;;27.62;32.30;94778.13;5008925;28;20655;-55
2022/11/04 10:25:53;;;;;;;29.90;19.03;;;27.00;45.10;;;27.25;32.48;94773.25;5013467;28;20487;-57
2022/11/04 10:28:21;;;;;;;34.03;21.40;;;26.80;45.00;;;26.87;33.33;94767.53;5018786;28;20472;-56
2022/11/04 10:30:50;;;;;;;32.50;18.60;;;26.60;45.40;;;26.68;33.30;94750.75;5017882;28;20473;-57
2022/11/04 10:33:26;;;;;;;43.20;19.17;;;26.40;46.50;;;26.72;33.63;94754.56;5011302;28;20455;-55
2022/11/04 10:35:57;;;;;;;28.33;19.47;;;26.30;46.40;;;26.87;33.44;94747.81;5013991;28;20479;-53
2022/11/04 10:38:35;;;;;;;39.60;18.87;;;26.30;46.40;;;26.90;33.09;94734.63;5017073;28;21070;-56
2022/11/04 10:41:03;;;;;;;33.93;19.23;;;26.40;46.00;;;26.81;33.46;94720.72;5012277;28;20467;-54
2022/11/04 10:43:33;;;;;;;37.93;19.37;;;26.30;45.90;;;26.79;33.30;94720.16;5014243;28;20514;-55
2022/11/04 10:46:14;;;;;;;24.93;16.07;;;26.30;46.10;;;26.87;32.96;94716.25;5015299;28;20553;-58
2022/11/04 10:48:49;;;;;;;34.67;16.90;;;26.30;46.00;;;26.89;33.04;94716.00;5010445;28;20448;-55
2022/11/04 10:51:20;;;;;;;34.03;14.67;;;26.30;45.70;;;26.63;32.83;94702.88;5018245;28;20534;-56
2022/11/04 10:53:48;;;;;;;27.60;15.47;;;26.30;45.40;;;26.52;33.18;94705.66;5011827;28;20940;-57
2022/11/04 10:56:19;;;;;;;30.23;15.50;;;26.10;45.50;;;26.51;33.04;94698.59;5014802;28;20500;-57
2022/11/04 10:58:47;;;;;;;25.97;14.50;;;26.00;45.80;;;26.47;32.52;94699.09;5016400;28;20452;-56
2022/11/04 11:01:26;;;;;;;25.67;14.27;;;26.00;45.30;;;26.21;33.02;94686.22;5014850;28;20996;-55
2022/11/04 11:03:55;;;;;;;26.90;13.83;;;25.90;45.60;;;25.98;33.39;94674.50;5017430;28;20449;-56
2022/11/04 11:06:26;;;;;;;34.30;13.10;;;25.60;45.90;;;25.79;33.53;94673.03;5011559;28;21026;-57